Aérodrome :
LOGIN :

S'inscrire | Disclaimer

   EN    FR    IT 

 










Légende :    VFR   VFR Marginal   IFR   IFR Intensif   IFR Très Intensif
Visi : 
Plafond : 
>= 8 km
>= 3000ft
5 à 8 km
1000 à 3000 ft
1500m à 5 km
500 à 1000 ft
800 à 1500m
200 à 500 ft
< 800m
< 200 ft
Symboles :   Orages  Brouillard  Fortes neiges  Fortes précipitations  Vent > 20 kt
SIGMETs :   Divers  Orages  Givrage  Turbulence  Onde Orograph.  Cendres Volcan.







- Altitude de l'aérodrome : 1260 ft
- Code IATA : LDE
- Voir les cartes d'approche


LFBT - Tarbes / Ossun

DERNIER METAR :
  • 181500Z AUTO 01008KT 340V040 CAVOK 31/18 Q1010 TEMPO 14015G40KT 4000 TSRA BKN010 BKN020CB

METARs EXPIRÉS :
  • 181430Z AUTO 02008KT 340V050 CAVOK 31/18 Q1010 TEMPO 14015G40KT 4000 TSRA BKN010 BKN020CB
  • 181400Z AUTO 36008KT 320V050 CAVOK 31/19 Q1010 NOSIG
  • 181330Z AUTO 35006KT 320V020 CAVOK 30/18 Q1010 NOSIG
  • 181300Z AUTO 34008KT 310V020 CAVOK 29/19 Q1010 NOSIG
  • 181230Z AUTO 35006KT 280V030 CAVOK 30/20 Q1010 NOSIG
  • 181200Z AUTO 03005KT 320V100 CAVOK 30/20 Q1011 NOSIG

TAF TAF LFBT
Valide du 18 à 12h jusqu'au 19 à 12h UTC


181100Z 1812/1912 05008KT CAVOK
PROB30
TEMPO 1816/1821 14015G40KT 4000 TSRA BKN010 BKN020CB
BECMG 1821/1823 28010KT
PROB30
TEMPO 1821/1824 28015G30KT
BECMG 1908/1910 36005KT
Pas de NOTAMs connus pour ce terrain.



MET'MAP, la Météo Aéronautique d'un coup d'oeil ! - Copyright ORBIFLY Décembre 2007 - Disclaimer

ORBIFLY MET'MAP TEAM :

Programmation & Développement : Alexandra Zaïnal
Conception & Développement : Baudouin d'Aumeries
Co-Programmation & Développement : Marc-Olivier Méhu
Soutien technique & logistique : Manuel Goepfert

Contact : metmap@orbifly.com




SOURCES & CREDITS :

   NOAA